sensor_id;sensor_type;location;lat;lon;timestamp;P1;durP1;ratioP1;P2;durP2;ratioP2
18689;SDS011;9782;52.930;15.562;2022-09-09T00:47:54;12.95;;;11.68;;
18689;SDS011;9782;52.930;15.562;2022-09-09T00:53:03;17.63;;;14.32;;
18689;SDS011;9782;52.930;15.562;2022-09-09T00:55:41;6.22;;;5.82;;
18689;SDS011;9782;52.930;15.562;2022-09-09T01:00:43;18.17;;;14.38;;
18689;SDS011;9782;52.930;15.562;2022-09-09T01:06:01;27.17;;;17.75;;
18689;SDS011;9782;52.930;15.562;2022-09-09T01:08:57;15.18;;;13.38;;
18689;SDS011;9782;52.930;15.562;2022-09-09T01:11:33;15.00;;;13.30;;
18689;SDS011;9782;52.930;15.562;2022-09-09T01:14:11;12.70;;;11.70;;
18689;SDS011;9782;52.930;15.562;2022-09-09T01:19:15;17.80;;;14.25;;
18689;SDS011;9782;52.930;15.562;2022-09-09T01:21:54;12.63;;;11.52;;
18689;SDS011;9782;52.930;15.562;2022-09-09T01:24:27;13.00;;;11.80;;
18689;SDS011;9782;52.930;15.562;2022-09-09T01:26:59;13.00;;;11.82;;
18689;SDS011;9782;52.930;15.562;2022-09-09T01:29:28;9.63;;;8.93;;
18689;SDS011;9782;52.930;15.562;2022-09-09T01:34:24;23.30;;;16.02;;
18689;SDS011;9782;52.930;15.562;2022-09-09T01:36:55;12.23;;;11.20;;
18689;SDS011;9782;52.930;15.562;2022-09-09T01:39:25;38.08;;;18.60;;
18689;SDS011;9782;52.930;15.562;2022-09-09T01:41:53;45.65;;;22.35;;
18689;SDS011;9782;52.930;15.562;2022-09-09T01:44:22;37.00;;;24.00;;
18689;SDS011;9782;52.930;15.562;2022-09-09T01:46:51;31.35;;;19.20;;
18689;SDS011;9782;52.930;15.562;2022-09-09T02:01:58;25.42;;;16.83;;
18689;SDS011;9782;52.930;15.562;2022-09-09T02:12:05;20.50;;;15.02;;
18689;SDS011;9782;52.930;15.562;2022-09-09T02:19:36;15.38;;;13.20;;
18689;SDS011;9782;52.930;15.562;2022-09-09T02:24:35;15.60;;;13.30;;
18689;SDS011;9782;52.930;15.562;2022-09-09T02:29:34;18.40;;;14.13;;
18689;SDS011;9782;52.930;15.562;2022-09-09T02:32:09;13.93;;;12.50;;
18689;SDS011;9782;52.930;15.562;2022-09-09T02:34:40;14.77;;;13.38;;
18689;SDS011;9782;52.930;15.562;2022-09-09T02:37:11;11.73;;;10.82;;
18689;SDS011;9782;52.930;15.562;2022-09-09T02:42:06;93.82;;;30.55;;
18689;SDS011;9782;52.930;15.562;2022-09-09T02:44:34;64.07;;;26.10;;
18689;SDS011;9782;52.930;15.562;2022-09-09T02:47:09;70.85;;;26.95;;
18689;SDS011;9782;52.930;15.562;2022-09-09T02:49:43;76.75;;;27.85;;
18689;SDS011;9782;52.930;15.562;2022-09-09T02:52:18;18.02;;;15.90;;
18689;SDS011;9782;52.930;15.562;2022-09-09T02:54:49;48.90;;;23.83;;
18689;SDS011;9782;52.930;15.562;2022-09-09T02:57:22;73.78;;;27.17;;
18689;SDS011;9782;52.930;15.562;2022-09-09T02:59:52;70.05;;;26.88;;
18689;SDS011;9782;52.930;15.562;2022-09-09T03:02:24;49.92;;;23.25;;
18689;SDS011;9782;52.930;15.562;2022-09-09T03:04:51;45.22;;;22.40;;
18689;SDS011;9782;52.930;15.562;2022-09-09T03:07:19;52.88;;;23.67;;
18689;SDS011;9782;52.930;15.562;2022-09-09T03:09:46;58.03;;;24.65;;
18689;SDS011;9782;52.930;15.562;2022-09-09T03:12:14;67.35;;;26.35;;
18689;SDS011;9782;52.930;15.562;2022-09-09T03:14:41;65.40;;;26.23;;
18689;SDS011;9782;52.930;15.562;2022-09-09T03:17:09;56.25;;;24.75;;
18689;SDS011;9782;52.930;15.562;2022-09-09T03:19:37;47.78;;;22.80;;
18689;SDS011;9782;52.930;15.562;2022-09-09T03:22:05;44.85;;;22.23;;
18689;SDS011;9782;52.930;15.562;2022-09-09T03:24:32;51.08;;;23.50;;
18689;SDS011;9782;52.930;15.562;2022-09-09T03:26:59;46.08;;;23.02;;
18689;SDS011;9782;52.930;15.562;2022-09-09T03:29:26;62.25;;;25.58;;
18689;SDS011;9782;52.930;15.562;2022-09-09T03:31:53;63.85;;;25.92;;
18689;SDS011;9782;52.930;15.562;2022-09-09T03:34:20;68.47;;;26.77;;
18689;SDS011;9782;52.930;15.562;2022-09-09T03:36:48;77.32;;;27.70;;
18689;SDS011;9782;52.930;15.562;2022-09-09T03:39:15;76.45;;;28.05;;
18689;SDS011;9782;52.930;15.562;2022-09-09T03:41:42;71.90;;;27.00;;
18689;SDS011;9782;52.930;15.562;2022-09-09T03:44:12;136.70;;;63.90;;
18689;SDS011;9782;52.930;15.562;2022-09-09T03:46:39;68.15;;;28.42;;
18689;SDS011;9782;52.930;15.562;2022-09-09T03:49:06;82.35;;;28.40;;
18689;SDS011;9782;52.930;15.562;2022-09-09T03:51:34;81.80;;;27.15;;
18689;SDS011;9782;52.930;15.562;2022-09-09T03:54:03;62.65;;;24.48;;
18689;SDS011;9782;52.930;15.562;2022-09-09T03:56:33;60.58;;;24.13;;
18689;SDS011;9782;52.930;15.562;2022-09-09T03:59:00;57.92;;;23.50;;
18689;SDS011;9782;52.930;15.562;2022-09-09T04:01:27;64.45;;;24.45;;
18689;SDS011;9782;52.930;15.562;2022-09-09T04:03:55;60.60;;;24.00;;
18689;SDS011;9782;52.930;15.562;2022-09-09T04:06:23;58.28;;;23.95;;
18689;SDS011;9782;52.930;15.562;2022-09-09T04:08:51;56.88;;;23.77;;
18689;SDS011;9782;52.930;15.562;2022-09-09T04:11:19;55.60;;;23.55;;
18689;SDS011;9782;52.930;15.562;2022-09-09T04:13:47;60.55;;;24.38;;
18689;SDS011;9782;52.930;15.562;2022-09-09T04:16:14;53.33;;;23.23;;
18689;SDS011;9782;52.930;15.562;2022-09-09T04:18:41;49.63;;;22.48;;
18689;SDS011;9782;52.930;15.562;2022-09-09T04:21:09;48.35;;;22.10;;
18689;SDS011;9782;52.930;15.562;2022-09-09T04:23:37;46.45;;;21.55;;
18689;SDS011;9782;52.930;15.562;2022-09-09T04:26:05;47.10;;;21.73;;
18689;SDS011;9782;52.930;15.562;2022-09-09T04:28:34;45.45;;;21.40;;
18689;SDS011;9782;52.930;15.562;2022-09-09T04:31:06;46.17;;;21.58;;
18689;SDS011;9782;52.930;15.562;2022-09-09T04:33:34;43.97;;;20.88;;
18689;SDS011;9782;52.930;15.562;2022-09-09T04:36:02;44.38;;;21.10;;
18689;SDS011;9782;52.930;15.562;2022-09-09T04:38:29;44.40;;;21.23;;
18689;SDS011;9782;52.930;15.562;2022-09-09T04:40:56;48.63;;;22.15;;
18689;SDS011;9782;52.930;15.562;2022-09-09T04:43:23;45.20;;;21.38;;
18689;SDS011;9782;52.930;15.562;2022-09-09T04:45:57;48.83;;;22.20;;
18689;SDS011;9782;52.930;15.562;2022-09-09T04:48:25;51.53;;;22.77;;
18689;SDS011;9782;52.930;15.562;2022-09-09T04:50:56;51.70;;;22.92;;
18689;SDS011;9782;52.930;15.562;2022-09-09T04:53:24;48.83;;;22.13;;
18689;SDS011;9782;52.930;15.562;2022-09-09T04:55:53;55.60;;;23.70;;
18689;SDS011;9782;52.930;15.562;2022-09-09T04:58:27;51.50;;;23.02;;
18689;SDS011;9782;52.930;15.562;2022-09-09T05:01:01;52.05;;;23.00;;
18689;SDS011;9782;52.930;15.562;2022-09-09T05:03:30;50.20;;;22.73;;
18689;SDS011;9782;52.930;15.562;2022-09-09T05:06:02;49.45;;;22.63;;
18689;SDS011;9782;52.930;15.562;2022-09-09T05:08:31;41.67;;;20.95;;
18689;SDS011;9782;52.930;15.562;2022-09-09T05:10:58;63.53;;;25.17;;
18689;SDS011;9782;52.930;15.562;2022-09-09T05:13:25;67.25;;;25.77;;
18689;SDS011;9782;52.930;15.562;2022-09-09T05:15:52;60.13;;;25.00;;
18689;SDS011;9782;52.930;15.562;2022-09-09T05:18:21;61.60;;;25.05;;
18689;SDS011;9782;52.930;15.562;2022-09-09T05:20:48;65.05;;;25.65;;
18689;SDS011;9782;52.930;15.562;2022-09-09T05:23:16;61.80;;;24.95;;
18689;SDS011;9782;52.930;15.562;2022-09-09T05:25:43;62.38;;;25.10;;
18689;SDS011;9782;52.930;15.562;2022-09-09T05:28:11;62.45;;;25.08;;
18689;SDS011;9782;52.930;15.562;2022-09-09T05:30:38;61.80;;;24.95;;
18689;SDS011;9782;52.930;15.562;2022-09-09T05:33:06;57.38;;;24.05;;
18689;SDS011;9782;52.930;15.562;2022-09-09T05:35:35;54.25;;;23.52;;
18689;SDS011;9782;52.930;15.562;2022-09-09T05:38:03;55.25;;;23.65;;
18689;SDS011;9782;52.930;15.562;2022-09-09T05:40:30;50.63;;;22.90;;
18689;SDS011;9782;52.930;15.562;2022-09-09T05:42:59;49.88;;;22.80;;
18689;SDS011;9782;52.930;15.562;2022-09-09T05:45:27;49.05;;;22.45;;
18689;SDS011;9782;52.930;15.562;2022-09-09T05:47:54;49.00;;;22.85;;
18689;SDS011;9782;52.930;15.562;2022-09-09T05:50:21;48.85;;;22.67;;
18689;SDS011;9782;52.930;15.562;2022-09-09T05:52:49;46.17;;;22.13;;
18689;SDS011;9782;52.930;15.562;2022-09-09T05:55:16;46.17;;;22.02;;
18689;SDS011;9782;52.930;15.562;2022-09-09T05:57:47;45.58;;;22.02;;
18689;SDS011;9782;52.930;15.562;2022-09-09T06:00:16;45.35;;;22.02;;
18689;SDS011;9782;52.930;15.562;2022-09-09T06:02:49;41.97;;;21.23;;
18689;SDS011;9782;52.930;15.562;2022-09-09T06:05:17;42.10;;;21.40;;
18689;SDS011;9782;52.930;15.562;2022-09-09T06:07:44;39.00;;;20.52;;
18689;SDS011;9782;52.930;15.562;2022-09-09T06:10:13;39.55;;;20.70;;
18689;SDS011;9782;52.930;15.562;2022-09-09T06:12:40;36.25;;;19.98;;
18689;SDS011;9782;52.930;15.562;2022-09-09T06:15:08;37.60;;;20.30;;
18689;SDS011;9782;52.930;15.562;2022-09-09T06:17:35;43.85;;;21.80;;
18689;SDS011;9782;52.930;15.562;2022-09-09T06:20:04;40.00;;;20.85;;
18689;SDS011;9782;52.930;15.562;2022-09-09T06:22:31;39.25;;;20.67;;
18689;SDS011;9782;52.930;15.562;2022-09-09T06:24:58;43.70;;;21.70;;
18689;SDS011;9782;52.930;15.562;2022-09-09T06:27:28;49.97;;;22.80;;
18689;SDS011;9782;52.930;15.562;2022-09-09T06:29:55;48.37;;;22.53;;
18689;SDS011;9782;52.930;15.562;2022-09-09T06:32:22;50.97;;;23.15;;
18689;SDS011;9782;52.930;15.562;2022-09-09T06:34:49;52.17;;;23.35;;
18689;SDS011;9782;52.930;15.562;2022-09-09T06:37:16;51.83;;;23.37;;
18689;SDS011;9782;52.930;15.562;2022-09-09T06:39:43;54.63;;;24.00;;
18689;SDS011;9782;52.930;15.562;2022-09-09T06:47:05;50.40;;;23.05;;
18689;SDS011;9782;52.930;15.562;2022-09-09T06:49:33;55.10;;;23.90;;
18689;SDS011;9782;52.930;15.562;2022-09-09T06:52:00;59.53;;;24.55;;
18689;SDS011;9782;52.930;15.562;2022-09-09T06:54:27;61.63;;;25.17;;
18689;SDS011;9782;52.930;15.562;2022-09-09T06:56:54;62.13;;;25.30;;
18689;SDS011;9782;52.930;15.562;2022-09-09T06:59:22;62.28;;;25.15;;
18689;SDS011;9782;52.930;15.562;2022-09-09T07:01:50;61.50;;;25.17;;
18689;SDS011;9782;52.930;15.562;2022-09-09T07:04:19;60.63;;;25.13;;
18689;SDS011;9782;52.930;15.562;2022-09-09T07:06:46;59.40;;;24.85;;
18689;SDS011;9782;52.930;15.562;2022-09-09T07:09:14;58.67;;;24.67;;
18689;SDS011;9782;52.930;15.562;2022-09-09T07:11:42;55.92;;;24.02;;
18689;SDS011;9782;52.930;15.562;2022-09-09T07:14:10;66.82;;;25.98;;
18689;SDS011;9782;52.930;15.562;2022-09-09T07:16:39;59.17;;;24.50;;
18689;SDS011;9782;52.930;15.562;2022-09-09T07:19:08;69.03;;;26.00;;
18689;SDS011;9782;52.930;15.562;2022-09-09T07:21:36;65.63;;;25.75;;
18689;SDS011;9782;52.930;15.562;2022-09-09T07:24:03;63.95;;;25.65;;
18689;SDS011;9782;52.930;15.562;2022-09-09T07:26:32;68.15;;;26.30;;
18689;SDS011;9782;52.930;15.562;2022-09-09T07:29:00;58.70;;;24.70;;
18689;SDS011;9782;52.930;15.562;2022-09-09T07:31:28;60.00;;;24.83;;
18689;SDS011;9782;52.930;15.562;2022-09-09T07:33:56;62.03;;;25.23;;
18689;SDS011;9782;52.930;15.562;2022-09-09T07:36:26;66.90;;;25.88;;
18689;SDS011;9782;52.930;15.562;2022-09-09T07:38:55;70.55;;;26.90;;
18689;SDS011;9782;52.930;15.562;2022-09-09T07:41:24;76.57;;;27.67;;
18689;SDS011;9782;52.930;15.562;2022-09-09T07:43:53;84.35;;;30.25;;
18689;SDS011;9782;52.930;15.562;2022-09-09T07:46:21;86.50;;;54.00;;
18689;SDS011;9782;52.930;15.562;2022-09-09T07:48:50;485.30;;;250.50;;
18689;SDS011;9782;52.930;15.562;2022-09-09T08:35:57;121.07;;;34.22;;
18689;SDS011;9782;52.930;15.562;2022-09-09T08:38:25;114.50;;;33.08;;
18689;SDS011;9782;52.930;15.562;2022-09-09T08:40:52;114.20;;;33.33;;
18689;SDS011;9782;52.930;15.562;2022-09-09T08:43:32;118.40;;;33.47;;
18689;SDS011;9782;52.930;15.562;2022-09-09T08:46:01;120.28;;;33.92;;
18689;SDS011;9782;52.930;15.562;2022-09-09T08:48:39;115.93;;;32.92;;
18689;SDS011;9782;52.930;15.562;2022-09-09T08:51:15;114.78;;;32.78;;
18689;SDS011;9782;52.930;15.562;2022-09-09T08:53:43;114.80;;;32.90;;
18689;SDS011;9782;52.930;15.562;2022-09-09T08:56:14;112.72;;;32.63;;
18689;SDS011;9782;52.930;15.562;2022-09-09T08:58:47;113.47;;;32.92;;
18689;SDS011;9782;52.930;15.562;2022-09-09T09:01:28;113.05;;;32.70;;
18689;SDS011;9782;52.930;15.562;2022-09-09T09:04:07;110.97;;;32.38;;
18689;SDS011;9782;52.930;15.562;2022-09-09T09:09:21;115.95;;;32.90;;
18689;SDS011;9782;52.930;15.562;2022-09-09T09:11:53;113.47;;;33.15;;
18689;SDS011;9782;52.930;15.562;2022-09-09T09:14:27;118.22;;;33.65;;
18689;SDS011;9782;52.930;15.562;2022-09-09T09:16:57;120.60;;;33.60;;
18689;SDS011;9782;52.930;15.562;2022-09-09T09:21:54;135.43;;;35.97;;
18689;SDS011;9782;52.930;15.562;2022-09-09T09:29:35;153.77;;;37.90;;
18689;SDS011;9782;52.930;15.562;2022-09-09T09:32:02;149.40;;;36.70;;
18689;SDS011;9782;52.930;15.562;2022-09-09T09:34:30;144.05;;;35.72;;
18689;SDS011;9782;52.930;15.562;2022-09-09T09:41:55;127.07;;;34.65;;
18689;SDS011;9782;52.930;15.562;2022-09-09T09:44:23;122.32;;;33.83;;
18689;SDS011;9782;52.930;15.562;2022-09-09T09:47:04;113.97;;;33.20;;
18689;SDS011;9782;52.930;15.562;2022-09-09T09:52:00;121.35;;;34.53;;
18689;SDS011;9782;52.930;15.562;2022-09-09T09:54:28;112.38;;;33.13;;
18689;SDS011;9782;52.930;15.562;2022-09-09T09:57:06;110.30;;;32.55;;
18689;SDS011;9782;52.930;15.562;2022-09-09T09:59:35;122.38;;;33.65;;
18689;SDS011;9782;52.930;15.562;2022-09-09T10:02:16;133.05;;;34.65;;
18689;SDS011;9782;52.930;15.562;2022-09-09T10:04:46;118.88;;;33.30;;
18689;SDS011;9782;52.930;15.562;2022-09-09T10:09:44;114.90;;;32.92;;
18689;SDS011;9782;52.930;15.562;2022-09-09T10:12:15;108.20;;;31.90;;
18689;SDS011;9782;52.930;15.562;2022-09-09T10:14:52;94.63;;;30.58;;
18689;SDS011;9782;52.930;15.562;2022-09-09T10:17:27;103.43;;;31.45;;
18689;SDS011;9782;52.930;15.562;2022-09-09T10:20:10;88.53;;;30.27;;
18689;SDS011;9782;52.930;15.562;2022-09-09T10:22:47;69.07;;;27.30;;
18689;SDS011;9782;52.930;15.562;2022-09-09T10:25:20;78.28;;;28.98;;
18689;SDS011;9782;52.930;15.562;2022-09-09T10:28:07;80.38;;;29.30;;
18689;SDS011;9782;52.930;15.562;2022-09-09T10:31:10;83.18;;;29.42;;
18689;SDS011;9782;52.930;15.562;2022-09-09T10:33:50;85.72;;;29.70;;
18689;SDS011;9782;52.930;15.562;2022-09-09T10:36:24;86.15;;;29.92;;
18689;SDS011;9782;52.930;15.562;2022-09-09T10:38:53;86.85;;;30.02;;
18689;SDS011;9782;52.930;15.562;2022-09-09T10:41:31;85.25;;;30.02;;
18689;SDS011;9782;52.930;15.562;2022-09-09T10:47:17;85.15;;;29.95;;
18689;SDS011;9782;52.930;15.562;2022-09-09T10:50:00;85.85;;;30.05;;
18689;SDS011;9782;52.930;15.562;2022-09-09T10:52:44;86.32;;;30.25;;
18689;SDS011;9782;52.930;15.562;2022-09-09T10:55:20;85.72;;;29.80;;
18689;SDS011;9782;52.930;15.562;2022-09-09T10:57:53;90.07;;;30.63;;
18689;SDS011;9782;52.930;15.562;2022-09-09T11:00:23;91.22;;;30.40;;
18689;SDS011;9782;52.930;15.562;2022-09-09T11:02:54;92.35;;;30.73;;
18689;SDS011;9782;52.930;15.562;2022-09-09T11:05:26;90.55;;;30.40;;
18689;SDS011;9782;52.930;15.562;2022-09-09T11:07:57;89.90;;;30.30;;
18689;SDS011;9782;52.930;15.562;2022-09-09T11:10:29;91.35;;;30.27;;
18689;SDS011;9782;52.930;15.562;2022-09-09T11:13:01;91.82;;;30.55;;
18689;SDS011;9782;52.930;15.562;2022-09-09T11:15:35;91.05;;;30.38;;
18689;SDS011;9782;52.930;15.562;2022-09-09T11:18:08;91.32;;;30.65;;
18689;SDS011;9782;52.930;15.562;2022-09-09T11:20:41;91.47;;;30.58;;
18689;SDS011;9782;52.930;15.562;2022-09-09T11:23:11;91.10;;;30.33;;
18689;SDS011;9782;52.930;15.562;2022-09-09T11:25:41;92.38;;;30.73;;
18689;SDS011;9782;52.930;15.562;2022-09-09T11:28:17;92.32;;;30.65;;
18689;SDS011;9782;52.930;15.562;2022-09-09T11:30:58;92.78;;;30.40;;
18689;SDS011;9782;52.930;15.562;2022-09-09T11:33:51;91.63;;;30.50;;
18689;SDS011;9782;52.930;15.562;2022-09-09T11:36:42;89.28;;;29.77;;
18689;SDS011;9782;52.930;15.562;2022-09-09T11:42:20;93.15;;;30.80;;
18689;SDS011;9782;52.930;15.562;2022-09-09T11:44:48;92.22;;;30.27;;
18689;SDS011;9782;52.930;15.562;2022-09-09T11:47:19;93.60;;;30.65;;
18689;SDS011;9782;52.930;15.562;2022-09-09T11:49:49;94.18;;;30.65;;
18689;SDS011;9782;52.930;15.562;2022-09-09T11:52:23;94.50;;;30.60;;
18689;SDS011;9782;52.930;15.562;2022-09-09T11:54:53;96.07;;;30.70;;
18689;SDS011;9782;52.930;15.562;2022-09-09T11:57:25;97.00;;;31.00;;
18689;SDS011;9782;52.930;15.562;2022-09-09T11:59:57;96.90;;;31.08;;
18689;SDS011;9782;52.930;15.562;2022-09-09T12:02:24;97.63;;;31.05;;
18689;SDS011;9782;52.930;15.562;2022-09-09T12:04:56;98.72;;;31.27;;
18689;SDS011;9782;52.930;15.562;2022-09-09T12:07:31;97.72;;;31.00;;
18689;SDS011;9782;52.930;15.562;2022-09-09T12:10:03;99.57;;;31.35;;
18689;SDS011;9782;52.930;15.562;2022-09-09T12:12:32;99.60;;;31.33;;
18689;SDS011;9782;52.930;15.562;2022-09-09T12:17:46;99.80;;;31.42;;
18689;SDS011;9782;52.930;15.562;2022-09-09T12:20:16;99.70;;;31.40;;
18689;SDS011;9782;52.930;15.562;2022-09-09T12:22:58;99.28;;;31.40;;
18689;SDS011;9782;52.930;15.562;2022-09-09T12:25:41;98.35;;;30.95;;
18689;SDS011;9782;52.930;15.562;2022-09-09T12:28:17;100.68;;;31.42;;
18689;SDS011;9782;52.930;15.562;2022-09-09T12:30:48;103.28;;;31.77;;
18689;SDS011;9782;52.930;15.562;2022-09-09T12:33:23;104.63;;;31.80;;
18689;SDS011;9782;52.930;15.562;2022-09-09T12:35:53;105.82;;;32.00;;
18689;SDS011;9782;52.930;15.562;2022-09-09T12:38:29;106.55;;;31.92;;
18689;SDS011;9782;52.930;15.562;2022-09-09T12:40:59;110.80;;;32.80;;
18689;SDS011;9782;52.930;15.562;2022-09-09T12:43:26;113.63;;;32.85;;
18689;SDS011;9782;52.930;15.562;2022-09-09T12:45:55;97.38;;;31.00;;
18689;SDS011;9782;52.930;15.562;2022-09-09T12:48:27;97.57;;;31.20;;
18689;SDS011;9782;52.930;15.562;2022-09-09T12:51:01;107.80;;;32.13;;
18689;SDS011;9782;52.930;15.562;2022-09-09T12:53:33;131.00;;;34.40;;
18689;SDS011;9782;52.930;15.562;2022-09-09T12:56:02;127.40;;;34.10;;
18689;SDS011;9782;52.930;15.562;2022-09-09T12:58:32;133.55;;;34.55;;
18689;SDS011;9782;52.930;15.562;2022-09-09T13:01:00;146.77;;;36.00;;
18689;SDS011;9782;52.930;15.562;2022-09-09T13:03:30;11.07;;;10.27;;
18689;SDS011;9782;52.930;15.562;2022-09-09T13:05:58;22.50;;;21.17;;
18689;SDS011;9782;52.930;15.562;2022-09-09T13:08:38;28.30;;;26.53;;
18689;SDS011;9782;52.930;15.562;2022-09-09T13:11:06;27.90;;;26.30;;
18689;SDS011;9782;52.930;15.562;2022-09-09T13:13:37;29.57;;;27.83;;
18689;SDS011;9782;52.930;15.562;2022-09-09T13:16:06;28.53;;;26.90;;
18689;SDS011;9782;52.930;15.562;2022-09-09T13:18:44;30.20;;;28.30;;
18689;SDS011;9782;52.930;15.562;2022-09-09T13:21:12;31.30;;;29.40;;
18689;SDS011;9782;52.930;15.562;2022-09-09T13:23:41;308.53;;;170.97;;
18689;SDS011;9782;52.930;15.562;2022-09-09T13:26:19;712.30;;;310.60;;
18689;SDS011;9782;52.930;15.562;2022-09-09T13:28:49;532.37;;;110.87;;
18689;SDS011;9782;52.930;15.562;2022-09-09T13:31:21;67.10;;;63.60;;
18689;SDS011;9782;52.930;15.562;2022-09-09T13:33:52;44.50;;;42.03;;
18689;SDS011;9782;52.930;15.562;2022-09-09T13:36:27;10.65;;;9.95;;
18689;SDS011;9782;52.930;15.562;2022-09-09T13:38:58;9.38;;;8.57;;
18689;SDS011;9782;52.930;15.562;2022-09-09T13:41:28;8.23;;;7.60;;
18689;SDS011;9782;52.930;15.562;2022-09-09T13:43:58;6.35;;;5.82;;
18689;SDS011;9782;52.930;15.562;2022-09-09T13:46:32;79.15;;;21.35;;
